Mount Hood, OR

12:05 PM PDT on August 27, 2014 (GMT -0700)
Parkdale West | Change Station
CLOSE
Current Station
Personal Weather Station
Location: Mt Hood Parkdale, OR
Elevation: 1473 ft
Nearby Weather Stations

Elev 1473 ft 45.54 °N, 121.62 °W | Updated 33 seconds ago

Clear
Clear
85.8 °F
Feels Like 85 °F
N
0.0
Wind Variable Wind from NE
Gusts 12.0 mph

Today
High -- | Low -- °F
--% Chance of Precip.
Yesterday
High -- | Low -- °F
Precip. -- in
6:21 AM 7:53 PM
Waxing Crescent, 4% visible
Pressure 29.97 in
Visibility 10.0 miles
Clouds Clear
Heat Index 85 °F
Dew Point 59 °F
Humidity 41%
Rainfall 0.00 in
Snow Depth 0 in , 1 in , 0 in
UV 6 out of 12
Pollen 4.00 out of 12
Air Quality Not available.
Flu Activity Not available.
METAR KDLS 271753Z AUTO 34006KT 10SM CLR 28/13 A2998 RMK AO2 SLP149 T02780128 10278 20161 58008

More Conditions Fewer Conditions

Pressure 29.97 in
Visibility 10.0 miles
Clouds Clear
Heat Index 85 °F
Dew Point 59 °F
Humidity 41%
Rainfall 0.00 in
Snow Depth 0 in , 1 in , 0 in
UV 6 out of 12
Pollen 4.00 out of 12
Air Quality Not available.
Flu Activity Not available.
METAR KDLS 271753Z AUTO 34006KT 10SM CLR 28/13 A2998 RMK AO2 SLP149 T02780128 10278 20161 58008

More Conditions Fewer Conditions

10-Day Weather Forecast

Almanac

Astronomy

Aug. 27, 2014 Rise Set
Actual Time 6:21 AM PDT 7:53 PM PDT
Civil Twilight 5:50 AM PDT 8:23 PM PDT
Nautical Twilight 5:13 AM PDT 9:01 PM PDT
Astronomical Twilight 4:32 AM PDT 9:41 PM PDT
Moon 8:31 AM PDT 8:38 PM PDT
Length of Visible Light 14h 33m
Length of Day
13h 31m
Tomorrow will be 3m 2s shorter.
Waxing Crescent, 4% of the Moon is Illuminated
Today
Waxing Crescent
Sep 2
First Quarter
Sep 8
Full
Sep 15
Last Quarter
Sep 24
New

Today's Extremes

State Highs State Lows

Community

WunderPhotos

Upload Photos

1,747,753 photos uploaded!

Nearby

Snow Depth

Station Depth Elevation
Red Hill 0 in 4400 ft
Greenpoint 1 in 3200 ft
Mt. Hood Test Site 0 in 5400 ft
Blazed Alder 0 in 3650 ft
Mud Ridge 0 in 3800 ft

Earthquake Activity

City Distance Mag. Time & Date
No recent earthquake activity has been reported nearby.
Minimum magnitude displayed is 2.5.

Coastal Water Temperatures

Place Temperature
No Stations Reporting

Nearby Weather Stations